This is the latest recevied weather packets stored in our database for station/object DK6GC-10. If no packets are shown the sender has not sent any weather packets the latest 10 day(s).
| Time | Temp. | Humidity | Pressure | Rain* | Wind** | Luminosity | Snow |
|---|---|---|---|---|---|---|---|
| 1787817619 | 23.33° C | 74% | 1015 hPa | - | - | - | - |
| 1787816719 | 22.78° C | 75% | 1014.9 hPa | - | - | - | - |
| 1787815818 | 21.67° C | 82% | 1014.9 hPa | - | - | - | - |
| 1787814918 | 21.11° C | 85% | 1015.1 hPa | - | - | - | - |
| 1787814018 | 20° C | 90% | 1014.8 hPa | - | - | - | - |
| 1787813118 | 19.44° C | 91% | 1014.7 hPa | - | - | - | - |
| 1787812218 | 20° C | 88% | 1014.8 hPa | - | - | - | - |
| 1787811317 | 20° C | 87% | 1014.5 hPa | - | - | - | - |
| 1787810421 | 18.89° C | 95% | 1014.4 hPa | - | - | - | - |
| 1787809521 | 17.78° C | 98% | 1014.3 hPa | - | - | - | - |
| 1787808621 | 17.22° C | 100% | 1014.5 hPa | - | - | - | - |
| 1787807720 | 16.67° C | 100% | 1014.3 hPa | - | - | - | - |
| 1787806820 | 16.11° C | 100% | 1014.3 hPa | - | - | - | - |
| 1787805920 | 16.11° C | 100% | 1014 hPa | - | - | - | - |
| 1787805020 | 16.11° C | 100% | 1014 hPa | - | - | - | - |
| 1787804120 | 16.11° C | 100% | 1014 hPa | - | - | - | - |
| 1787803219 | 16.11° C | 100% | 1013.9 hPa | - | - | - | - |
| 1787802319 | 16.11° C | 100% | 1013.7 hPa | - | - | - | - |
| 1787801419 | 16.67° C | 100% | 1013.7 hPa | - | - | - | - |
| 1787800518 | 16.67° C | 100% | 1014 hPa | - | - | - | - |
| 1787799618 | 16.67° C | 100% | 1013.7 hPa | - | - | - | - |
| 1787798718 | 16.67° C | 100% | 1013.6 hPa | - | - | - | - |
| 1787796917 | 16.67° C | 100% | 1013.7 hPa | - | - | - | - |
| 1787796017 | 16.67° C | 100% | 1013.8 hPa | - | - | - | - |
| 1787795117 | 16.67° C | 99% | 1013.9 hPa | - | - | - | - |
* Rain since midnight (hover to see other rain measurements)
** Current wind speed in m/s (hover to see current wind gust speed)